LFPN

Toussus-le-Noble Airport

Toussus-le-Noble, France
METAR LFPN 170700Z AUTO 23012KT 9999 FEW015 SCT024 BKN034 04/03 Q1007 TEMPO 4000 SHRA BKN014 SCT020CB
Observed Flight Rules
Jan-17 @ 07:00 UTC (38 minutes ago) Visual Flight Rules
Wind Visibility Clouds
230° at 12 knots 10,000+ meters
  • Few at 1,500' AGL
  • Scattered at 2,400' AGL
  • Broken at 3,400' AGL
Temperatures Readings
Current 4°C / 39°F
Dewpoint 3°C / 37°F
Humidity 93%
Altimeter 29.73" Hg
Pressure 1006.92 hPa
Elevation 164
METAR LFPN 170700Z AUTO 23012KT 9999 FEW015 SCT024 BKN034 04/03 Q1007 TEMPO 4000 SHRA BKN014 SCT020CB
Observed Flight Rules
Jan-17 @ 07:00 UTC
(38 minutes ago)
VFR
Wind Visibility
230° at 12 knots 10,000+ meters
Clouds
  • Few at 1,500' AGL
  • Scattered at 2,400' AGL
  • Broken at 3,400' AGL
Temperature Dewpoint
4°C / 39°F 3°C / 37°F
Humidity Altimeter Pressure
93% 29.73" Hg 1006.92 hPa